sensor_id;sensor_type;location;lat;lon;timestamp;temperature;humidity
21335;DHT22;69435;52.670;13.544;2023-05-14T00:00:52;14.40;52.50
21335;DHT22;69435;52.670;13.544;2023-05-14T00:03:38;14.40;52.20
21335;DHT22;69435;52.670;13.544;2023-05-14T00:06:25;14.40;51.80
21335;DHT22;69435;52.670;13.544;2023-05-14T00:09:11;14.50;51.90
21335;DHT22;69435;52.670;13.544;2023-05-14T00:11:57;14.50;51.70
21335;DHT22;69435;52.670;13.544;2023-05-14T00:14:43;14.50;51.40
21335;DHT22;69435;52.670;13.544;2023-05-14T00:17:29;14.50;51.30
21335;DHT22;69435;52.670;13.544;2023-05-14T00:20:15;14.50;51.40
21335;DHT22;69435;52.670;13.544;2023-05-14T00:23:01;14.60;51.40
21335;DHT22;69435;52.670;13.544;2023-05-14T00:25:47;14.60;51.50
21335;DHT22;69435;52.670;13.544;2023-05-14T00:28:34;14.60;51.60
21335;DHT22;69435;52.670;13.544;2023-05-14T00:31:20;14.50;51.60
21335;DHT22;69435;52.670;13.544;2023-05-14T00:34:06;14.50;51.40
21335;DHT22;69435;52.670;13.544;2023-05-14T00:36:53;14.60;51.20
21335;DHT22;69435;52.670;13.544;2023-05-14T00:39:39;14.60;50.90
21335;DHT22;69435;52.670;13.544;2023-05-14T00:42:27;14.60;50.80
21335;DHT22;69435;52.670;13.544;2023-05-14T00:45:13;14.60;50.70
21335;DHT22;69435;52.670;13.544;2023-05-14T00:47:59;14.60;50.70
21335;DHT22;69435;52.670;13.544;2023-05-14T00:50:45;14.60;50.60
21335;DHT22;69435;52.670;13.544;2023-05-14T00:53:31;14.60;50.60
21335;DHT22;69435;52.670;13.544;2023-05-14T00:56:18;14.60;50.50
21335;DHT22;69435;52.670;13.544;2023-05-14T00:59:04;14.60;50.50
21335;DHT22;69435;52.670;13.544;2023-05-14T01:01:53;14.60;50.50
21335;DHT22;69435;52.670;13.544;2023-05-14T01:04:39;14.50;50.50
21335;DHT22;69435;52.670;13.544;2023-05-14T01:07:42;14.50;50.60
21335;DHT22;69435;52.670;13.544;2023-05-14T01:10:50;14.50;50.40
21335;DHT22;69435;52.670;13.544;2023-05-14T01:16:51;14.30;50.40
21335;DHT22;69435;52.670;13.544;2023-05-14T01:19:45;14.30;50.50
21335;DHT22;69435;52.670;13.544;2023-05-14T01:22:32;14.30;50.60
21335;DHT22;69435;52.670;13.544;2023-05-14T01:25:18;14.20;50.50
21335;DHT22;69435;52.670;13.544;2023-05-14T01:28:16;14.10;50.90
21335;DHT22;69435;52.670;13.544;2023-05-14T01:31:14;14.10;51.60
21335;DHT22;69435;52.670;13.544;2023-05-14T01:34:05;14.00;50.90
21335;DHT22;69435;52.670;13.544;2023-05-14T01:36:54;13.90;51.10
21335;DHT22;69435;52.670;13.544;2023-05-14T01:39:42;13.90;51.60
21335;DHT22;69435;52.670;13.544;2023-05-14T01:42:29;13.80;51.70
21335;DHT22;69435;52.670;13.544;2023-05-14T01:45:19;13.80;51.70
21335;DHT22;69435;52.670;13.544;2023-05-14T01:48:06;13.70;51.90
21335;DHT22;69435;52.670;13.544;2023-05-14T01:50:52;13.70;52.10
21335;DHT22;69435;52.670;13.544;2023-05-14T01:53:38;13.60;51.90
21335;DHT22;69435;52.670;13.544;2023-05-14T01:56:24;13.60;51.70
21335;DHT22;69435;52.670;13.544;2023-05-14T01:59:10;13.60;51.60
21335;DHT22;69435;52.670;13.544;2023-05-14T02:01:56;13.50;51.40
21335;DHT22;69435;52.670;13.544;2023-05-14T02:04:42;13.50;51.30
21335;DHT22;69435;52.670;13.544;2023-05-14T02:07:28;13.50;51.40
21335;DHT22;69435;52.670;13.544;2023-05-14T02:10:14;13.40;51.20
21335;DHT22;69435;52.670;13.544;2023-05-14T02:13:02;13.40;51.30
21335;DHT22;69435;52.670;13.544;2023-05-14T02:15:49;13.40;51.50
21335;DHT22;69435;52.670;13.544;2023-05-14T02:18:36;13.30;51.60
21335;DHT22;69435;52.670;13.544;2023-05-14T02:21:24;13.30;51.60
21335;DHT22;69435;52.670;13.544;2023-05-14T02:24:10;13.30;51.60
21335;DHT22;69435;52.670;13.544;2023-05-14T02:26:57;13.30;51.70
21335;DHT22;69435;52.670;13.544;2023-05-14T02:29:45;13.30;51.80
21335;DHT22;69435;52.670;13.544;2023-05-14T02:32:32;13.30;51.80
21335;DHT22;69435;52.670;13.544;2023-05-14T02:35:18;13.30;51.80
21335;DHT22;69435;52.670;13.544;2023-05-14T02:38:04;13.30;52.00
21335;DHT22;69435;52.670;13.544;2023-05-14T02:40:50;13.40;52.10
21335;DHT22;69435;52.670;13.544;2023-05-14T02:43:36;13.40;52.00
21335;DHT22;69435;52.670;13.544;2023-05-14T02:46:22;13.50;52.00
21335;DHT22;69435;52.670;13.544;2023-05-14T02:49:08;13.50;51.80
21335;DHT22;69435;52.670;13.544;2023-05-14T02:51:54;13.60;51.60
21335;DHT22;69435;52.670;13.544;2023-05-14T02:54:40;13.70;51.60
21335;DHT22;69435;52.670;13.544;2023-05-14T02:57:26;13.70;51.30
21335;DHT22;69435;52.670;13.544;2023-05-14T03:00:12;13.80;51.10
21335;DHT22;69435;52.670;13.544;2023-05-14T03:02:58;13.80;50.80
21335;DHT22;69435;52.670;13.544;2023-05-14T03:05:45;13.80;50.60
21335;DHT22;69435;52.670;13.544;2023-05-14T03:08:31;13.90;50.60
21335;DHT22;69435;52.670;13.544;2023-05-14T03:11:17;13.90;50.60
21335;DHT22;69435;52.670;13.544;2023-05-14T03:14:02;13.90;50.70
21335;DHT22;69435;52.670;13.544;2023-05-14T03:16:48;14.00;50.80
21335;DHT22;69435;52.670;13.544;2023-05-14T03:19:35;14.00;51.00
21335;DHT22;69435;52.670;13.544;2023-05-14T03:22:21;14.10;51.30
21335;DHT22;69435;52.670;13.544;2023-05-14T03:25:07;14.20;51.30
21335;DHT22;69435;52.670;13.544;2023-05-14T03:27:54;14.20;51.30
21335;DHT22;69435;52.670;13.544;2023-05-14T03:30:41;14.20;51.00
21335;DHT22;69435;52.670;13.544;2023-05-14T03:33:27;14.30;50.50
21335;DHT22;69435;52.670;13.544;2023-05-14T03:36:13;14.40;50.30
21335;DHT22;69435;52.670;13.544;2023-05-14T03:38:59;14.40;49.70
21335;DHT22;69435;52.670;13.544;2023-05-14T03:41:46;14.40;49.30
21335;DHT22;69435;52.670;13.544;2023-05-14T03:44:32;14.50;49.20
21335;DHT22;69435;52.670;13.544;2023-05-14T03:47:18;14.50;48.80
21335;DHT22;69435;52.670;13.544;2023-05-14T03:50:05;14.60;48.70
21335;DHT22;69435;52.670;13.544;2023-05-14T03:52:52;14.50;48.90
21335;DHT22;69435;52.670;13.544;2023-05-14T03:55:39;14.60;49.30
21335;DHT22;69435;52.670;13.544;2023-05-14T03:58:25;14.60;49.20
21335;DHT22;69435;52.670;13.544;2023-05-14T04:01:11;14.70;48.50
21335;DHT22;69435;52.670;13.544;2023-05-14T04:03:59;14.70;47.70
21335;DHT22;69435;52.670;13.544;2023-05-14T04:06:45;14.70;47.40
21335;DHT22;69435;52.670;13.544;2023-05-14T04:09:31;14.70;47.40
21335;DHT22;69435;52.670;13.544;2023-05-14T04:12:17;14.70;47.90
21335;DHT22;69435;52.670;13.544;2023-05-14T04:15:04;14.80;47.10
21335;DHT22;69435;52.670;13.544;2023-05-14T04:17:51;14.90;46.70
21335;DHT22;69435;52.670;13.544;2023-05-14T04:20:37;14.90;46.30
21335;DHT22;69435;52.670;13.544;2023-05-14T04:23:24;14.90;46.20
21335;DHT22;69435;52.670;13.544;2023-05-14T04:26:12;14.90;46.20
21335;DHT22;69435;52.670;13.544;2023-05-14T04:28:58;15.00;46.50
21335;DHT22;69435;52.670;13.544;2023-05-14T04:31:48;15.00;46.50
21335;DHT22;69435;52.670;13.544;2023-05-14T04:34:34;15.00;46.60
21335;DHT22;69435;52.670;13.544;2023-05-14T04:37:20;15.10;46.20
21335;DHT22;69435;52.670;13.544;2023-05-14T04:40:07;15.10;46.50
21335;DHT22;69435;52.670;13.544;2023-05-14T04:42:56;15.20;46.50
21335;DHT22;69435;52.670;13.544;2023-05-14T04:45:45;15.30;46.50
21335;DHT22;69435;52.670;13.544;2023-05-14T04:48:31;15.30;46.60
21335;DHT22;69435;52.670;13.544;2023-05-14T04:51:17;15.40;46.20
21335;DHT22;69435;52.670;13.544;2023-05-14T04:54:03;15.40;45.80
21335;DHT22;69435;52.670;13.544;2023-05-14T04:56:50;15.60;45.90
21335;DHT22;69435;52.670;13.544;2023-05-14T04:59:35;15.70;45.50
21335;DHT22;69435;52.670;13.544;2023-05-14T05:02:21;15.80;45.00
21335;DHT22;69435;52.670;13.544;2023-05-14T05:05:08;15.90;44.70
21335;DHT22;69435;52.670;13.544;2023-05-14T05:07:55;16.00;44.70
21335;DHT22;69435;52.670;13.544;2023-05-14T05:10:41;16.10;45.20
21335;DHT22;69435;52.670;13.544;2023-05-14T05:13:27;16.10;44.70
21335;DHT22;69435;52.670;13.544;2023-05-14T05:16:13;16.20;43.70
21335;DHT22;69435;52.670;13.544;2023-05-14T05:18:59;16.20;43.60
21335;DHT22;69435;52.670;13.544;2023-05-14T05:21:45;16.30;43.20
21335;DHT22;69435;52.670;13.544;2023-05-14T05:24:31;16.30;42.90
21335;DHT22;69435;52.670;13.544;2023-05-14T05:27:17;16.40;42.30
21335;DHT22;69435;52.670;13.544;2023-05-14T05:30:03;16.50;42.50
21335;DHT22;69435;52.670;13.544;2023-05-14T05:32:50;16.60;42.40
21335;DHT22;69435;52.670;13.544;2023-05-14T05:35:36;16.60;42.20
21335;DHT22;69435;52.670;13.544;2023-05-14T05:38:22;16.80;42.10
21335;DHT22;69435;52.670;13.544;2023-05-14T05:41:09;16.90;42.00
21335;DHT22;69435;52.670;13.544;2023-05-14T05:43:55;17.10;42.80
21335;DHT22;69435;52.670;13.544;2023-05-14T05:46:41;17.20;43.40
21335;DHT22;69435;52.670;13.544;2023-05-14T05:49:27;17.40;44.10
21335;DHT22;69435;52.670;13.544;2023-05-14T05:52:13;17.60;44.00
21335;DHT22;69435;52.670;13.544;2023-05-14T05:54:59;17.80;42.60
21335;DHT22;69435;52.670;13.544;2023-05-14T05:57:45;18.00;41.30
21335;DHT22;69435;52.670;13.544;2023-05-14T06:00:31;18.20;40.40
21335;DHT22;69435;52.670;13.544;2023-05-14T06:03:18;18.50;40.30
21335;DHT22;69435;52.670;13.544;2023-05-14T06:06:04;18.70;40.00
21335;DHT22;69435;52.670;13.544;2023-05-14T06:08:50;18.90;39.00
21335;DHT22;69435;52.670;13.544;2023-05-14T06:11:36;19.10;39.20
21335;DHT22;69435;52.670;13.544;2023-05-14T06:14:22;19.20;39.20
21335;DHT22;69435;52.670;13.544;2023-05-14T06:17:08;19.40;39.10
21335;DHT22;69435;52.670;13.544;2023-05-14T06:19:54;19.60;38.40
21335;DHT22;69435;52.670;13.544;2023-05-14T06:22:40;19.60;36.90
21335;DHT22;69435;52.670;13.544;2023-05-14T06:25:26;19.70;37.40
21335;DHT22;69435;52.670;13.544;2023-05-14T06:28:12;19.80;37.20
21335;DHT22;69435;52.670;13.544;2023-05-14T06:30:58;19.80;37.50
21335;DHT22;69435;52.670;13.544;2023-05-14T06:33:45;19.90;37.10
21335;DHT22;69435;52.670;13.544;2023-05-14T06:36:31;20.00;37.10
21335;DHT22;69435;52.670;13.544;2023-05-14T06:39:17;20.00;36.10
21335;DHT22;69435;52.670;13.544;2023-05-14T06:42:03;20.00;36.60
21335;DHT22;69435;52.670;13.544;2023-05-14T06:44:50;20.10;36.60
21335;DHT22;69435;52.670;13.544;2023-05-14T06:47:36;20.10;36.50
21335;DHT22;69435;52.670;13.544;2023-05-14T06:50:22;20.10;36.80
21335;DHT22;69435;52.670;13.544;2023-05-14T06:53:07;20.20;36.40
21335;DHT22;69435;52.670;13.544;2023-05-14T06:55:56;20.30;35.40
21335;DHT22;69435;52.670;13.544;2023-05-14T06:58:42;20.50;35.00
21335;DHT22;69435;52.670;13.544;2023-05-14T07:01:28;20.60;34.70
21335;DHT22;69435;52.670;13.544;2023-05-14T07:04:15;20.70;34.80
21335;DHT22;69435;52.670;13.544;2023-05-14T07:07:01;20.80;35.00
21335;DHT22;69435;52.670;13.544;2023-05-14T07:09:47;21.00;35.00
21335;DHT22;69435;52.670;13.544;2023-05-14T07:12:33;21.10;34.70
21335;DHT22;69435;52.670;13.544;2023-05-14T07:15:19;21.30;33.90
21335;DHT22;69435;52.670;13.544;2023-05-14T07:18:05;21.40;33.90
21335;DHT22;69435;52.670;13.544;2023-05-14T07:20:51;21.50;33.20
21335;DHT22;69435;52.670;13.544;2023-05-14T07:23:37;21.60;32.90
21335;DHT22;69435;52.670;13.544;2023-05-14T07:26:23;21.50;33.10
21335;DHT22;69435;52.670;13.544;2023-05-14T07:29:09;21.50;32.60
21335;DHT22;69435;52.670;13.544;2023-05-14T07:31:55;21.50;33.30
21335;DHT22;69435;52.670;13.544;2023-05-14T07:34:41;21.50;33.90
21335;DHT22;69435;52.670;13.544;2023-05-14T07:37:27;21.60;33.00
21335;DHT22;69435;52.670;13.544;2023-05-14T07:40:14;21.60;33.00
21335;DHT22;69435;52.670;13.544;2023-05-14T07:43:01;21.70;33.30
21335;DHT22;69435;52.670;13.544;2023-05-14T07:45:49;21.80;33.30
21335;DHT22;69435;52.670;13.544;2023-05-14T07:48:35;21.90;32.90
21335;DHT22;69435;52.670;13.544;2023-05-14T07:51:21;21.90;33.40
21335;DHT22;69435;52.670;13.544;2023-05-14T07:54:07;21.90;33.30
21335;DHT22;69435;52.670;13.544;2023-05-14T07:56:53;21.90;33.50
21335;DHT22;69435;52.670;13.544;2023-05-14T07:59:39;22.00;33.30
21335;DHT22;69435;52.670;13.544;2023-05-14T08:02:25;21.90;33.30
21335;DHT22;69435;52.670;13.544;2023-05-14T08:05:11;22.00;33.30
21335;DHT22;69435;52.670;13.544;2023-05-14T08:07:58;22.10;33.20
21335;DHT22;69435;52.670;13.544;2023-05-14T08:10:46;22.10;32.30
21335;DHT22;69435;52.670;13.544;2023-05-14T08:13:31;22.10;32.30
21335;DHT22;69435;52.670;13.544;2023-05-14T08:16:17;22.20;32.50
21335;DHT22;69435;52.670;13.544;2023-05-14T08:19:03;22.20;32.30
21335;DHT22;69435;52.670;13.544;2023-05-14T08:21:49;22.30;32.30
21335;DHT22;69435;52.670;13.544;2023-05-14T08:24:36;22.50;31.90
21335;DHT22;69435;52.670;13.544;2023-05-14T08:27:21;22.50;32.40
21335;DHT22;69435;52.670;13.544;2023-05-14T08:30:08;22.60;32.00
21335;DHT22;69435;52.670;13.544;2023-05-14T08:32:54;22.70;32.10
21335;DHT22;69435;52.670;13.544;2023-05-14T08:35:40;22.90;32.30
21335;DHT22;69435;52.670;13.544;2023-05-14T08:38:26;23.10;31.60
21335;DHT22;69435;52.670;13.544;2023-05-14T08:41:15;23.30;30.40
21335;DHT22;69435;52.670;13.544;2023-05-14T08:44:12;23.40;30.80
21335;DHT22;69435;52.670;13.544;2023-05-14T08:47:00;23.60;30.30
21335;DHT22;69435;52.670;13.544;2023-05-14T08:49:53;23.90;29.90
21335;DHT22;69435;52.670;13.544;2023-05-14T08:52:50;24.20;29.00
21335;DHT22;69435;52.670;13.544;2023-05-14T08:55:37;24.40;28.20
21335;DHT22;69435;52.670;13.544;2023-05-14T08:58:24;24.40;28.10
21335;DHT22;69435;52.670;13.544;2023-05-14T09:01:11;24.40;28.20
21335;DHT22;69435;52.670;13.544;2023-05-14T09:03:57;24.50;28.50
21335;DHT22;69435;52.670;13.544;2023-05-14T09:06:48;24.70;27.80
21335;DHT22;69435;52.670;13.544;2023-05-14T09:09:35;25.00;28.00
21335;DHT22;69435;52.670;13.544;2023-05-14T09:12:22;25.20;27.10
21335;DHT22;69435;52.670;13.544;2023-05-14T09:15:08;25.30;27.80
21335;DHT22;69435;52.670;13.544;2023-05-14T09:17:55;25.50;27.90
21335;DHT22;69435;52.670;13.544;2023-05-14T09:20:41;25.80;27.60
21335;DHT22;69435;52.670;13.544;2023-05-14T09:23:31;26.20;27.70
21335;DHT22;69435;52.670;13.544;2023-05-14T09:26:25;26.80;26.50
21335;DHT22;69435;52.670;13.544;2023-05-14T09:29:13;27.50;27.40
21335;DHT22;69435;52.670;13.544;2023-05-14T09:31:59;28.10;26.20
21335;DHT22;69435;52.670;13.544;2023-05-14T09:34:50;28.80;23.90
21335;DHT22;69435;52.670;13.544;2023-05-14T09:37:36;29.30;23.50
21335;DHT22;69435;52.670;13.544;2023-05-14T09:40:23;29.80;23.40
21335;DHT22;69435;52.670;13.544;2023-05-14T09:43:08;30.40;22.90
21335;DHT22;69435;52.670;13.544;2023-05-14T09:45:55;31.20;22.70
21335;DHT22;69435;52.670;13.544;2023-05-14T09:48:41;31.60;21.20
21335;DHT22;69435;52.670;13.544;2023-05-14T09:51:29;31.90;20.60
21335;DHT22;69435;52.670;13.544;2023-05-14T09:54:16;31.90;20.20
21335;DHT22;69435;52.670;13.544;2023-05-14T09:57:02;32.10;20.00
21335;DHT22;69435;52.670;13.544;2023-05-14T09:59:49;32.50;20.30
21335;DHT22;69435;52.670;13.544;2023-05-14T10:02:36;32.80;19.70
21335;DHT22;69435;52.670;13.544;2023-05-14T10:05:23;32.80;18.40
21335;DHT22;69435;52.670;13.544;2023-05-14T10:08:16;32.50;17.80
21335;DHT22;69435;52.670;13.544;2023-05-14T10:11:23;31.90;18.10
21335;DHT22;69435;52.670;13.544;2023-05-14T10:14:25;31.60;18.60
21335;DHT22;69435;52.670;13.544;2023-05-14T10:17:20;31.30;19.10
21335;DHT22;69435;52.670;13.544;2023-05-14T10:20:08;30.80;19.60
21335;DHT22;69435;52.670;13.544;2023-05-14T10:22:57;30.40;19.20
21335;DHT22;69435;52.670;13.544;2023-05-14T10:25:43;30.00;20.20
21335;DHT22;69435;52.670;13.544;2023-05-14T10:28:31;29.80;19.70
21335;DHT22;69435;52.670;13.544;2023-05-14T10:31:20;29.80;19.90
21335;DHT22;69435;52.670;13.544;2023-05-14T10:34:37;29.60;20.40
21335;DHT22;69435;52.670;13.544;2023-05-14T10:37:26;29.50;20.50
21335;DHT22;69435;52.670;13.544;2023-05-14T10:40:12;29.30;20.00
21335;DHT22;69435;52.670;13.544;2023-05-14T10:42:59;29.00;20.50
21335;DHT22;69435;52.670;13.544;2023-05-14T10:45:45;28.60;19.80
21335;DHT22;69435;52.670;13.544;2023-05-14T10:48:32;28.50;20.10
21335;DHT22;69435;52.670;13.544;2023-05-14T10:51:19;28.60;19.50
21335;DHT22;69435;52.670;13.544;2023-05-14T10:54:08;28.50;19.80
21335;DHT22;69435;52.670;13.544;2023-05-14T10:56:57;28.40;20.50
21335;DHT22;69435;52.670;13.544;2023-05-14T10:59:46;28.40;20.90
21335;DHT22;69435;52.670;13.544;2023-05-14T11:02:39;28.40;20.60
21335;DHT22;69435;52.670;13.544;2023-05-14T11:05:27;28.40;22.20
21335;DHT22;69435;52.670;13.544;2023-05-14T11:08:13;28.50;21.10
21335;DHT22;69435;52.670;13.544;2023-05-14T11:11:01;28.40;21.60
21335;DHT22;69435;52.670;13.544;2023-05-14T11:13:48;28.40;20.70
21335;DHT22;69435;52.670;13.544;2023-05-14T11:16:35;28.30;20.70
21335;DHT22;69435;52.670;13.544;2023-05-14T11:19:22;28.10;21.00
21335;DHT22;69435;52.670;13.544;2023-05-14T11:22:08;27.80;21.10
21335;DHT22;69435;52.670;13.544;2023-05-14T11:24:54;27.40;21.30
21335;DHT22;69435;52.670;13.544;2023-05-14T11:27:42;26.90;21.30
21335;DHT22;69435;52.670;13.544;2023-05-14T11:30:30;26.50;22.70
21335;DHT22;69435;52.670;13.544;2023-05-14T11:33:17;26.40;23.00
21335;DHT22;69435;52.670;13.544;2023-05-14T11:36:04;26.20;23.30
21335;DHT22;69435;52.670;13.544;2023-05-14T11:38:50;26.10;23.30
21335;DHT22;69435;52.670;13.544;2023-05-14T11:41:43;26.00;23.50
21335;DHT22;69435;52.670;13.544;2023-05-14T11:44:31;25.80;23.30
21335;DHT22;69435;52.670;13.544;2023-05-14T11:47:19;25.70;23.30
21335;DHT22;69435;52.670;13.544;2023-05-14T11:50:06;25.60;24.90
21335;DHT22;69435;52.670;13.544;2023-05-14T11:52:56;25.70;24.30
21335;DHT22;69435;52.670;13.544;2023-05-14T11:55:42;25.70;24.10
21335;DHT22;69435;52.670;13.544;2023-05-14T11:58:31;25.70;24.20
21335;DHT22;69435;52.670;13.544;2023-05-14T12:01:20;25.70;23.90
21335;DHT22;69435;52.670;13.544;2023-05-14T12:04:06;25.70;23.70
21335;DHT22;69435;52.670;13.544;2023-05-14T12:06:53;25.50;24.10
21335;DHT22;69435;52.670;13.544;2023-05-14T12:09:41;25.30;25.00
21335;DHT22;69435;52.670;13.544;2023-05-14T12:12:35;25.10;25.60
21335;DHT22;69435;52.670;13.544;2023-05-14T12:15:21;24.90;25.20
21335;DHT22;69435;52.670;13.544;2023-05-14T12:18:08;24.70;25.30
21335;DHT22;69435;52.670;13.544;2023-05-14T12:20:55;24.60;26.70
21335;DHT22;69435;52.670;13.544;2023-05-14T12:23:46;24.50;25.70
21335;DHT22;69435;52.670;13.544;2023-05-14T12:26:32;24.60;25.90
21335;DHT22;69435;52.670;13.544;2023-05-14T12:29:19;24.70;25.00
21335;DHT22;69435;52.670;13.544;2023-05-14T12:32:10;24.70;25.60
21335;DHT22;69435;52.670;13.544;2023-05-14T12:34:56;24.80;25.00
21335;DHT22;69435;52.670;13.544;2023-05-14T12:37:42;24.70;25.20
21335;DHT22;69435;52.670;13.544;2023-05-14T12:40:28;24.50;25.60
21335;DHT22;69435;52.670;13.544;2023-05-14T12:43:14;24.50;26.30
21335;DHT22;69435;52.670;13.544;2023-05-14T12:46:00;24.50;26.80
21335;DHT22;69435;52.670;13.544;2023-05-14T12:48:46;24.50;27.00
21335;DHT22;69435;52.670;13.544;2023-05-14T12:51:33;24.50;26.50
21335;DHT22;69435;52.670;13.544;2023-05-14T12:54:19;24.50;26.30
21335;DHT22;69435;52.670;13.544;2023-05-14T12:57:05;24.50;26.30
21335;DHT22;69435;52.670;13.544;2023-05-14T12:59:52;24.60;27.40
21335;DHT22;69435;52.670;13.544;2023-05-14T13:02:38;24.80;27.40
21335;DHT22;69435;52.670;13.544;2023-05-14T13:05:24;24.90;27.30
21335;DHT22;69435;52.670;13.544;2023-05-14T13:08:10;24.90;27.30
21335;DHT22;69435;52.670;13.544;2023-05-14T13:10:59;25.00;26.60
21335;DHT22;69435;52.670;13.544;2023-05-14T13:13:45;25.00;26.30
21335;DHT22;69435;52.670;13.544;2023-05-14T13:16:31;25.00;26.40
21335;DHT22;69435;52.670;13.544;2023-05-14T13:19:17;25.00;25.70
21335;DHT22;69435;52.670;13.544;2023-05-14T13:22:04;25.00;26.80
21335;DHT22;69435;52.670;13.544;2023-05-14T13:24:50;25.20;26.20
21335;DHT22;69435;52.670;13.544;2023-05-14T13:27:36;25.40;26.10
21335;DHT22;69435;52.670;13.544;2023-05-14T13:30:22;25.50;25.70
21335;DHT22;69435;52.670;13.544;2023-05-14T13:33:08;25.60;24.20
21335;DHT22;69435;52.670;13.544;2023-05-14T13:35:54;25.60;23.70
21335;DHT22;69435;52.670;13.544;2023-05-14T13:38:40;25.50;24.50
21335;DHT22;69435;52.670;13.544;2023-05-14T13:41:26;25.50;24.10
21335;DHT22;69435;52.670;13.544;2023-05-14T13:44:13;25.40;24.30
21335;DHT22;69435;52.670;13.544;2023-05-14T13:46:59;25.40;25.60
21335;DHT22;69435;52.670;13.544;2023-05-14T13:49:46;25.30;26.00
21335;DHT22;69435;52.670;13.544;2023-05-14T13:52:32;25.20;25.30
21335;DHT22;69435;52.670;13.544;2023-05-14T13:55:18;24.90;25.10
21335;DHT22;69435;52.670;13.544;2023-05-14T13:58:04;24.80;25.30
21335;DHT22;69435;52.670;13.544;2023-05-14T14:00:51;24.50;25.70
21335;DHT22;69435;52.670;13.544;2023-05-14T14:03:37;24.30;25.90
21335;DHT22;69435;52.670;13.544;2023-05-14T14:06:25;24.20;26.70
21335;DHT22;69435;52.670;13.544;2023-05-14T14:09:14;24.10;26.40
21335;DHT22;69435;52.670;13.544;2023-05-14T14:12:02;24.10;26.50
21335;DHT22;69435;52.670;13.544;2023-05-14T14:14:50;24.20;26.80
21335;DHT22;69435;52.670;13.544;2023-05-14T14:17:36;24.20;26.00
21335;DHT22;69435;52.670;13.544;2023-05-14T14:20:23;24.20;26.00
21335;DHT22;69435;52.670;13.544;2023-05-14T14:23:09;24.30;25.70
21335;DHT22;69435;52.670;13.544;2023-05-14T14:25:56;24.30;26.50
21335;DHT22;69435;52.670;13.544;2023-05-14T14:28:42;24.40;26.90
21335;DHT22;69435;52.670;13.544;2023-05-14T14:31:29;24.40;25.70
21335;DHT22;69435;52.670;13.544;2023-05-14T14:34:15;24.40;25.40
21335;DHT22;69435;52.670;13.544;2023-05-14T14:37:04;24.30;26.10
21335;DHT22;69435;52.670;13.544;2023-05-14T14:39:50;24.20;26.40
21335;DHT22;69435;52.670;13.544;2023-05-14T14:42:37;24.20;26.00
21335;DHT22;69435;52.670;13.544;2023-05-14T14:45:23;24.20;26.20
21335;DHT22;69435;52.670;13.544;2023-05-14T14:48:31;24.20;26.20
21335;DHT22;69435;52.670;13.544;2023-05-14T14:51:19;24.10;26.30
21335;DHT22;69435;52.670;13.544;2023-05-14T14:54:05;24.10;26.50
21335;DHT22;69435;52.670;13.544;2023-05-14T14:56:51;24.00;25.20
21335;DHT22;69435;52.670;13.544;2023-05-14T14:59:37;24.00;25.90
21335;DHT22;69435;52.670;13.544;2023-05-14T15:02:23;23.80;25.80
21335;DHT22;69435;52.670;13.544;2023-05-14T15:05:10;23.70;27.10
21335;DHT22;69435;52.670;13.544;2023-05-14T15:07:58;23.50;25.80
21335;DHT22;69435;52.670;13.544;2023-05-14T15:10:45;23.30;26.30
21335;DHT22;69435;52.670;13.544;2023-05-14T15:13:31;23.30;26.90
21335;DHT22;69435;52.670;13.544;2023-05-14T15:16:17;23.10;27.20
21335;DHT22;69435;52.670;13.544;2023-05-14T15:19:03;23.10;27.90
21335;DHT22;69435;52.670;13.544;2023-05-14T15:21:49;23.10;27.50
21335;DHT22;69435;52.670;13.544;2023-05-14T15:24:35;23.00;28.10
21335;DHT22;69435;52.670;13.544;2023-05-14T15:27:24;23.00;28.60
21335;DHT22;69435;52.670;13.544;2023-05-14T15:30:11;23.00;28.30
21335;DHT22;69435;52.670;13.544;2023-05-14T15:32:58;23.10;28.60
21335;DHT22;69435;52.670;13.544;2023-05-14T15:35:44;23.20;29.20
21335;DHT22;69435;52.670;13.544;2023-05-14T15:38:30;23.20;28.90
21335;DHT22;69435;52.670;13.544;2023-05-14T15:41:16;23.20;28.20
21335;DHT22;69435;52.670;13.544;2023-05-14T15:44:02;23.40;28.10
21335;DHT22;69435;52.670;13.544;2023-05-14T15:46:48;23.40;28.30
21335;DHT22;69435;52.670;13.544;2023-05-14T15:49:34;23.40;27.80
21335;DHT22;69435;52.670;13.544;2023-05-14T15:52:21;23.50;27.70
21335;DHT22;69435;52.670;13.544;2023-05-14T15:55:07;23.50;28.10
21335;DHT22;69435;52.670;13.544;2023-05-14T15:57:54;23.40;27.50
21335;DHT22;69435;52.670;13.544;2023-05-14T16:00:39;23.50;27.50
21335;DHT22;69435;52.670;13.544;2023-05-14T16:03:25;23.40;27.30
21335;DHT22;69435;52.670;13.544;2023-05-14T16:06:11;23.40;27.90
21335;DHT22;69435;52.670;13.544;2023-05-14T16:08:57;23.40;28.10
21335;DHT22;69435;52.670;13.544;2023-05-14T16:11:45;23.30;27.90
21335;DHT22;69435;52.670;13.544;2023-05-14T16:14:32;23.20;28.10
21335;DHT22;69435;52.670;13.544;2023-05-14T16:17:19;23.10;28.40
21335;DHT22;69435;52.670;13.544;2023-05-14T16:20:05;23.00;28.80
21335;DHT22;69435;52.670;13.544;2023-05-14T16:22:52;23.00;28.70
21335;DHT22;69435;52.670;13.544;2023-05-14T16:25:38;23.00;29.60
21335;DHT22;69435;52.670;13.544;2023-05-14T16:28:24;22.90;28.90
21335;DHT22;69435;52.670;13.544;2023-05-14T16:31:10;22.90;29.40
21335;DHT22;69435;52.670;13.544;2023-05-14T16:34:00;23.00;29.10
21335;DHT22;69435;52.670;13.544;2023-05-14T16:36:46;23.00;28.90
21335;DHT22;69435;52.670;13.544;2023-05-14T16:39:32;23.00;28.90
21335;DHT22;69435;52.670;13.544;2023-05-14T16:42:18;22.90;28.40
21335;DHT22;69435;52.670;13.544;2023-05-14T16:45:04;22.80;28.30
21335;DHT22;69435;52.670;13.544;2023-05-14T16:47:50;22.70;28.50
21335;DHT22;69435;52.670;13.544;2023-05-14T16:50:36;22.50;28.70
21335;DHT22;69435;52.670;13.544;2023-05-14T16:53:24;22.50;28.70
21335;DHT22;69435;52.670;13.544;2023-05-14T16:56:10;22.40;29.00
21335;DHT22;69435;52.670;13.544;2023-05-14T16:58:56;22.40;29.50
21335;DHT22;69435;52.670;13.544;2023-05-14T17:01:42;22.30;29.10
21335;DHT22;69435;52.670;13.544;2023-05-14T17:04:32;22.20;29.10
21335;DHT22;69435;52.670;13.544;2023-05-14T17:07:24;22.20;29.30
21335;DHT22;69435;52.670;13.544;2023-05-14T17:10:10;22.10;29.90
21335;DHT22;69435;52.670;13.544;2023-05-14T17:12:56;22.00;30.30
21335;DHT22;69435;52.670;13.544;2023-05-14T17:15:42;21.90;30.20
21335;DHT22;69435;52.670;13.544;2023-05-14T17:18:28;21.80;30.80
21335;DHT22;69435;52.670;13.544;2023-05-14T17:21:14;21.70;30.80